sensor_id;sensor_type;location;lat;lon;timestamp;temperature;humidity
18450;DHT22;9354;50.194;7.690;2022-09-09T00:00:13;15.70;99.90
18450;DHT22;9354;50.194;7.690;2022-09-09T00:02:45;15.70;99.90
18450;DHT22;9354;50.194;7.690;2022-09-09T00:05:18;15.70;99.90
18450;DHT22;9354;50.194;7.690;2022-09-09T00:07:52;15.70;99.90
18450;DHT22;9354;50.194;7.690;2022-09-09T00:10:26;15.70;99.90
18450;DHT22;9354;50.194;7.690;2022-09-09T00:12:59;15.60;99.90
18450;DHT22;9354;50.194;7.690;2022-09-09T00:15:34;15.60;99.90
18450;DHT22;9354;50.194;7.690;2022-09-09T00:18:12;15.60;99.90
18450;DHT22;9354;50.194;7.690;2022-09-09T00:20:46;15.50;99.90
18450;DHT22;9354;50.194;7.690;2022-09-09T00:23:24;15.50;99.90
18450;DHT22;9354;50.194;7.690;2022-09-09T00:25:59;15.60;99.90
18450;DHT22;9354;50.194;7.690;2022-09-09T00:28:31;15.60;99.90
18450;DHT22;9354;50.194;7.690;2022-09-09T00:31:07;15.60;99.90
18450;DHT22;9354;50.194;7.690;2022-09-09T00:33:35;15.60;99.90
18450;DHT22;9354;50.194;7.690;2022-09-09T00:36:02;15.70;99.90
18450;DHT22;9354;50.194;7.690;2022-09-09T00:38:35;15.70;99.90
18450;DHT22;9354;50.194;7.690;2022-09-09T00:41:10;15.80;99.90
18450;DHT22;9354;50.194;7.690;2022-09-09T00:43:40;15.90;99.90
18450;DHT22;9354;50.194;7.690;2022-09-09T00:46:32;15.80;99.90
18450;DHT22;9354;50.194;7.690;2022-09-09T00:49:15;15.90;99.90
18450;DHT22;9354;50.194;7.690;2022-09-09T00:51:50;15.90;99.90
18450;DHT22;9354;50.194;7.690;2022-09-09T00:54:32;15.90;99.90
18450;DHT22;9354;50.194;7.690;2022-09-09T00:57:13;16.00;99.90
18450;DHT22;9354;50.194;7.690;2022-09-09T00:59:47;15.90;99.90
18450;DHT22;9354;50.194;7.690;2022-09-09T01:02:26;15.90;99.90
18450;DHT22;9354;50.194;7.690;2022-09-09T01:04:55;15.90;99.90
18450;DHT22;9354;50.194;7.690;2022-09-09T01:07:24;15.90;99.90
18450;DHT22;9354;50.194;7.690;2022-09-09T01:09:55;15.80;99.90
18450;DHT22;9354;50.194;7.690;2022-09-09T01:12:27;15.90;99.90
18450;DHT22;9354;50.194;7.690;2022-09-09T01:15:03;15.90;99.90
18450;DHT22;9354;50.194;7.690;2022-09-09T01:17:33;15.90;99.90
18450;DHT22;9354;50.194;7.690;2022-09-09T01:20:10;15.90;99.90
18450;DHT22;9354;50.194;7.690;2022-09-09T01:22:44;15.90;99.90
18450;DHT22;9354;50.194;7.690;2022-09-09T01:25:27;15.80;99.90
18450;DHT22;9354;50.194;7.690;2022-09-09T01:27:59;15.80;99.90
18450;DHT22;9354;50.194;7.690;2022-09-09T01:30:28;15.70;99.90
18450;DHT22;9354;50.194;7.690;2022-09-09T01:32:56;15.70;99.90
18450;DHT22;9354;50.194;7.690;2022-09-09T01:35:43;15.60;99.90
18450;DHT22;9354;50.194;7.690;2022-09-09T01:38:13;15.70;99.90
18450;DHT22;9354;50.194;7.690;2022-09-09T01:40:41;15.70;99.90
18450;DHT22;9354;50.194;7.690;2022-09-09T01:43:10;15.80;99.90
18450;DHT22;9354;50.194;7.690;2022-09-09T01:45:39;15.80;99.90
18450;DHT22;9354;50.194;7.690;2022-09-09T01:48:07;15.80;99.90
18450;DHT22;9354;50.194;7.690;2022-09-09T01:50:34;15.80;99.90
18450;DHT22;9354;50.194;7.690;2022-09-09T01:53:02;15.80;99.90
18450;DHT22;9354;50.194;7.690;2022-09-09T01:55:33;15.80;99.90
18450;DHT22;9354;50.194;7.690;2022-09-09T01:58:25;15.80;99.90
18450;DHT22;9354;50.194;7.690;2022-09-09T02:01:02;15.80;99.90
18450;DHT22;9354;50.194;7.690;2022-09-09T02:03:32;15.80;99.90
18450;DHT22;9354;50.194;7.690;2022-09-09T02:06:12;15.80;99.90
18450;DHT22;9354;50.194;7.690;2022-09-09T02:08:45;15.80;99.90
18450;DHT22;9354;50.194;7.690;2022-09-09T02:11:14;15.80;99.90
18450;DHT22;9354;50.194;7.690;2022-09-09T02:13:46;15.70;99.90
18450;DHT22;9354;50.194;7.690;2022-09-09T02:16:20;15.60;99.90
18450;DHT22;9354;50.194;7.690;2022-09-09T02:18:53;15.60;99.90
18450;DHT22;9354;50.194;7.690;2022-09-09T02:21:22;15.50;99.90
18450;DHT22;9354;50.194;7.690;2022-09-09T02:23:51;15.40;99.90
18450;DHT22;9354;50.194;7.690;2022-09-09T02:26:20;15.40;99.90
18450;DHT22;9354;50.194;7.690;2022-09-09T02:28:54;15.40;99.90
18450;DHT22;9354;50.194;7.690;2022-09-09T02:31:24;15.30;99.90
18450;DHT22;9354;50.194;7.690;2022-09-09T02:33:55;15.40;99.90
18450;DHT22;9354;50.194;7.690;2022-09-09T02:36:27;15.30;99.90
18450;DHT22;9354;50.194;7.690;2022-09-09T02:38:56;15.30;99.90
18450;DHT22;9354;50.194;7.690;2022-09-09T02:41:27;15.30;99.90
18450;DHT22;9354;50.194;7.690;2022-09-09T02:43:57;15.30;99.90
18450;DHT22;9354;50.194;7.690;2022-09-09T02:46:41;15.30;99.90
18450;DHT22;9354;50.194;7.690;2022-09-09T02:49:16;15.30;99.90
18450;DHT22;9354;50.194;7.690;2022-09-09T02:51:51;15.30;99.90
18450;DHT22;9354;50.194;7.690;2022-09-09T02:54:24;15.30;99.90
18450;DHT22;9354;50.194;7.690;2022-09-09T02:56:54;15.30;99.90
18450;DHT22;9354;50.194;7.690;2022-09-09T02:59:25;15.30;99.90
18450;DHT22;9354;50.194;7.690;2022-09-09T03:01:53;15.30;99.90
18450;DHT22;9354;50.194;7.690;2022-09-09T03:04:20;15.30;99.90
18450;DHT22;9354;50.194;7.690;2022-09-09T03:06:48;15.30;99.90
18450;DHT22;9354;50.194;7.690;2022-09-09T03:09:15;15.30;99.90
18450;DHT22;9354;50.194;7.690;2022-09-09T03:11:43;15.30;99.90
18450;DHT22;9354;50.194;7.690;2022-09-09T03:14:10;15.30;99.90
18450;DHT22;9354;50.194;7.690;2022-09-09T03:16:39;15.30;99.90
18450;DHT22;9354;50.194;7.690;2022-09-09T03:19:08;15.30;99.90
18450;DHT22;9354;50.194;7.690;2022-09-09T03:21:35;15.30;99.90
18450;DHT22;9354;50.194;7.690;2022-09-09T03:24:04;15.20;99.90
18450;DHT22;9354;50.194;7.690;2022-09-09T03:26:32;15.20;99.90
18450;DHT22;9354;50.194;7.690;2022-09-09T03:29:00;15.20;99.90
18450;DHT22;9354;50.194;7.690;2022-09-09T03:31:27;15.10;99.90
18450;DHT22;9354;50.194;7.690;2022-09-09T03:33:57;15.10;99.90
18450;DHT22;9354;50.194;7.690;2022-09-09T03:36:25;15.10;99.90
18450;DHT22;9354;50.194;7.690;2022-09-09T03:38:54;15.10;99.90
18450;DHT22;9354;50.194;7.690;2022-09-09T03:41:22;15.10;99.90
18450;DHT22;9354;50.194;7.690;2022-09-09T03:43:50;15.10;99.90
18450;DHT22;9354;50.194;7.690;2022-09-09T03:46:17;15.10;99.90
18450;DHT22;9354;50.194;7.690;2022-09-09T03:48:45;15.20;99.90
18450;DHT22;9354;50.194;7.690;2022-09-09T03:51:14;15.20;99.90
18450;DHT22;9354;50.194;7.690;2022-09-09T03:53:42;15.20;99.90
18450;DHT22;9354;50.194;7.690;2022-09-09T03:56:09;15.30;99.90
18450;DHT22;9354;50.194;7.690;2022-09-09T03:58:37;15.30;99.90
18450;DHT22;9354;50.194;7.690;2022-09-09T04:01:09;15.30;99.90
18450;DHT22;9354;50.194;7.690;2022-09-09T04:03:39;15.30;99.90
18450;DHT22;9354;50.194;7.690;2022-09-09T04:06:08;15.40;99.90
18450;DHT22;9354;50.194;7.690;2022-09-09T04:08:38;15.40;99.90
18450;DHT22;9354;50.194;7.690;2022-09-09T04:11:06;15.40;99.90
18450;DHT22;9354;50.194;7.690;2022-09-09T04:13:34;15.40;99.90
18450;DHT22;9354;50.194;7.690;2022-09-09T04:16:04;15.40;99.90
18450;DHT22;9354;50.194;7.690;2022-09-09T04:18:32;15.40;99.90
18450;DHT22;9354;50.194;7.690;2022-09-09T04:21:00;15.30;99.90
18450;DHT22;9354;50.194;7.690;2022-09-09T04:23:28;15.40;99.90
18450;DHT22;9354;50.194;7.690;2022-09-09T04:25:58;15.30;99.90
18450;DHT22;9354;50.194;7.690;2022-09-09T04:28:28;15.20;99.90
18450;DHT22;9354;50.194;7.690;2022-09-09T04:30:56;15.20;99.90
18450;DHT22;9354;50.194;7.690;2022-09-09T04:33:24;15.10;99.90
18450;DHT22;9354;50.194;7.690;2022-09-09T04:35:53;15.10;99.90
18450;DHT22;9354;50.194;7.690;2022-09-09T04:38:21;15.20;99.90
18450;DHT22;9354;50.194;7.690;2022-09-09T04:40:50;15.20;99.90
18450;DHT22;9354;50.194;7.690;2022-09-09T04:43:21;15.20;99.90
18450;DHT22;9354;50.194;7.690;2022-09-09T04:45:50;15.30;99.90
18450;DHT22;9354;50.194;7.690;2022-09-09T04:48:18;15.40;99.90
18450;DHT22;9354;50.194;7.690;2022-09-09T04:50:54;15.40;99.90
18450;DHT22;9354;50.194;7.690;2022-09-09T04:53:21;15.40;99.90
18450;DHT22;9354;50.194;7.690;2022-09-09T04:55:49;15.50;99.90
18450;DHT22;9354;50.194;7.690;2022-09-09T04:58:16;15.50;99.90
18450;DHT22;9354;50.194;7.690;2022-09-09T05:00:45;15.50;99.90
18450;DHT22;9354;50.194;7.690;2022-09-09T05:03:13;15.50;99.90
18450;DHT22;9354;50.194;7.690;2022-09-09T05:05:40;15.60;99.90
18450;DHT22;9354;50.194;7.690;2022-09-09T05:08:08;15.60;99.90
18450;DHT22;9354;50.194;7.690;2022-09-09T05:10:37;15.60;99.90
18450;DHT22;9354;50.194;7.690;2022-09-09T05:13:05;15.60;99.90
18450;DHT22;9354;50.194;7.690;2022-09-09T05:15:33;15.60;99.90
18450;DHT22;9354;50.194;7.690;2022-09-09T05:18:03;15.60;99.90
18450;DHT22;9354;50.194;7.690;2022-09-09T05:20:30;15.70;99.90
18450;DHT22;9354;50.194;7.690;2022-09-09T05:22:58;15.70;99.90
18450;DHT22;9354;50.194;7.690;2022-09-09T05:25:25;15.70;99.90
18450;DHT22;9354;50.194;7.690;2022-09-09T05:27:53;15.80;99.90
18450;DHT22;9354;50.194;7.690;2022-09-09T05:30:20;15.80;99.90
18450;DHT22;9354;50.194;7.690;2022-09-09T05:32:49;15.80;99.90
18450;DHT22;9354;50.194;7.690;2022-09-09T05:35:17;15.80;99.90
18450;DHT22;9354;50.194;7.690;2022-09-09T05:37:45;15.80;99.90
18450;DHT22;9354;50.194;7.690;2022-09-09T05:40:14;15.80;99.90
18450;DHT22;9354;50.194;7.690;2022-09-09T05:42:41;15.80;99.90
18450;DHT22;9354;50.194;7.690;2022-09-09T05:45:09;15.80;99.90
18450;DHT22;9354;50.194;7.690;2022-09-09T05:47:37;15.80;99.90
18450;DHT22;9354;50.194;7.690;2022-09-09T05:50:05;15.80;99.90
18450;DHT22;9354;50.194;7.690;2022-09-09T05:52:34;15.80;99.90
18450;DHT22;9354;50.194;7.690;2022-09-09T05:55:01;15.80;99.90
18450;DHT22;9354;50.194;7.690;2022-09-09T05:57:30;15.80;99.90
18450;DHT22;9354;50.194;7.690;2022-09-09T05:59:57;15.80;99.90
18450;DHT22;9354;50.194;7.690;2022-09-09T06:02:25;15.80;99.90
18450;DHT22;9354;50.194;7.690;2022-09-09T06:04:52;15.90;99.90
18450;DHT22;9354;50.194;7.690;2022-09-09T06:07:21;15.90;99.90
18450;DHT22;9354;50.194;7.690;2022-09-09T06:09:50;16.00;99.90
18450;DHT22;9354;50.194;7.690;2022-09-09T06:12:18;16.10;99.90
18450;DHT22;9354;50.194;7.690;2022-09-09T06:14:46;16.10;99.90
18450;DHT22;9354;50.194;7.690;2022-09-09T06:17:14;16.00;99.90
18450;DHT22;9354;50.194;7.690;2022-09-09T06:19:41;16.10;99.90
18450;DHT22;9354;50.194;7.690;2022-09-09T06:22:08;16.10;99.90
18450;DHT22;9354;50.194;7.690;2022-09-09T06:24:38;16.10;99.90
18450;DHT22;9354;50.194;7.690;2022-09-09T06:27:07;16.20;99.90
18450;DHT22;9354;50.194;7.690;2022-09-09T06:29:34;16.20;99.90
18450;DHT22;9354;50.194;7.690;2022-09-09T06:32:02;16.30;99.90
18450;DHT22;9354;50.194;7.690;2022-09-09T06:34:30;16.40;99.90
18450;DHT22;9354;50.194;7.690;2022-09-09T06:36:57;16.40;99.90
18450;DHT22;9354;50.194;7.690;2022-09-09T06:39:24;16.40;99.90
18450;DHT22;9354;50.194;7.690;2022-09-09T06:41:52;16.40;99.90
18450;DHT22;9354;50.194;7.690;2022-09-09T06:44:21;16.30;99.90
18450;DHT22;9354;50.194;7.690;2022-09-09T06:46:48;16.30;99.90
18450;DHT22;9354;50.194;7.690;2022-09-09T06:49:16;16.40;99.90
18450;DHT22;9354;50.194;7.690;2022-09-09T06:51:43;16.40;99.90
18450;DHT22;9354;50.194;7.690;2022-09-09T06:54:11;16.40;99.90
18450;DHT22;9354;50.194;7.690;2022-09-09T06:56:41;16.30;99.90
18450;DHT22;9354;50.194;7.690;2022-09-09T06:59:09;16.30;99.90
18450;DHT22;9354;50.194;7.690;2022-09-09T07:01:41;16.40;99.90
18450;DHT22;9354;50.194;7.690;2022-09-09T07:04:09;16.40;99.90
18450;DHT22;9354;50.194;7.690;2022-09-09T07:06:38;16.50;99.90
18450;DHT22;9354;50.194;7.690;2022-09-09T07:09:08;16.60;99.90
18450;DHT22;9354;50.194;7.690;2022-09-09T07:11:38;16.70;99.90
18450;DHT22;9354;50.194;7.690;2022-09-09T07:14:07;16.70;99.90
18450;DHT22;9354;50.194;7.690;2022-09-09T07:16:40;16.80;99.90
18450;DHT22;9354;50.194;7.690;2022-09-09T07:19:08;16.80;99.90
18450;DHT22;9354;50.194;7.690;2022-09-09T07:21:35;16.90;99.90
18450;DHT22;9354;50.194;7.690;2022-09-09T07:24:03;16.90;99.90
18450;DHT22;9354;50.194;7.690;2022-09-09T07:26:33;16.90;99.90
18450;DHT22;9354;50.194;7.690;2022-09-09T07:29:02;17.00;99.90
18450;DHT22;9354;50.194;7.690;2022-09-09T07:31:31;17.00;99.90
18450;DHT22;9354;50.194;7.690;2022-09-09T07:34:01;17.10;99.90
18450;DHT22;9354;50.194;7.690;2022-09-09T07:36:30;17.20;99.90
18450;DHT22;9354;50.194;7.690;2022-09-09T07:39:01;17.20;99.90
18450;DHT22;9354;50.194;7.690;2022-09-09T07:41:31;17.30;99.90
18450;DHT22;9354;50.194;7.690;2022-09-09T07:44:04;17.30;99.90
18450;DHT22;9354;50.194;7.690;2022-09-09T07:46:31;17.30;99.90
18450;DHT22;9354;50.194;7.690;2022-09-09T07:49:01;17.30;99.90
18450;DHT22;9354;50.194;7.690;2022-09-09T07:51:30;17.40;99.90
18450;DHT22;9354;50.194;7.690;2022-09-09T07:53:59;17.40;99.90
18450;DHT22;9354;50.194;7.690;2022-09-09T07:56:28;17.50;99.90
18450;DHT22;9354;50.194;7.690;2022-09-09T07:58:57;17.50;99.90
18450;DHT22;9354;50.194;7.690;2022-09-09T08:01:27;17.40;99.90
18450;DHT22;9354;50.194;7.690;2022-09-09T08:03:56;17.40;99.90
18450;DHT22;9354;50.194;7.690;2022-09-09T08:06:27;17.30;99.90
18450;DHT22;9354;50.194;7.690;2022-09-09T08:08:55;17.30;99.90
18450;DHT22;9354;50.194;7.690;2022-09-09T08:11:24;17.40;99.90
18450;DHT22;9354;50.194;7.690;2022-09-09T08:13:52;17.50;99.90
18450;DHT22;9354;50.194;7.690;2022-09-09T08:16:22;17.60;99.90
18450;DHT22;9354;50.194;7.690;2022-09-09T08:18:50;17.70;99.90
18450;DHT22;9354;50.194;7.690;2022-09-09T08:21:21;17.90;99.90
18450;DHT22;9354;50.194;7.690;2022-09-09T08:23:51;18.00;99.90
18450;DHT22;9354;50.194;7.690;2022-09-09T08:26:20;18.10;99.90
18450;DHT22;9354;50.194;7.690;2022-09-09T08:28:50;18.30;99.90
18450;DHT22;9354;50.194;7.690;2022-09-09T08:31:19;18.40;99.90
18450;DHT22;9354;50.194;7.690;2022-09-09T08:33:48;18.40;99.90
18450;DHT22;9354;50.194;7.690;2022-09-09T08:36:18;18.40;99.90
18450;DHT22;9354;50.194;7.690;2022-09-09T08:38:47;18.50;99.90
18450;DHT22;9354;50.194;7.690;2022-09-09T08:41:49;18.80;99.90
18450;DHT22;9354;50.194;7.690;2022-09-09T08:44:25;19.10;99.90
18450;DHT22;9354;50.194;7.690;2022-09-09T08:47:01;19.40;99.90
18450;DHT22;9354;50.194;7.690;2022-09-09T08:49:48;19.50;99.90
18450;DHT22;9354;50.194;7.690;2022-09-09T08:52:23;19.30;99.90
18450;DHT22;9354;50.194;7.690;2022-09-09T08:54:54;19.10;99.90
18450;DHT22;9354;50.194;7.690;2022-09-09T08:57:26;18.90;99.90
18450;DHT22;9354;50.194;7.690;2022-09-09T08:59:55;18.90;99.90
18450;DHT22;9354;50.194;7.690;2022-09-09T09:02:26;18.90;99.90
18450;DHT22;9354;50.194;7.690;2022-09-09T09:05:03;19.00;99.90
18450;DHT22;9354;50.194;7.690;2022-09-09T09:07:42;19.10;99.90
18450;DHT22;9354;50.194;7.690;2022-09-09T09:10:24;19.20;99.90
18450;DHT22;9354;50.194;7.690;2022-09-09T09:12:55;19.30;99.90
18450;DHT22;9354;50.194;7.690;2022-09-09T09:15:24;19.30;99.90
18450;DHT22;9354;50.194;7.690;2022-09-09T09:17:52;19.20;99.90
18450;DHT22;9354;50.194;7.690;2022-09-09T09:20:25;19.00;99.90
18450;DHT22;9354;50.194;7.690;2022-09-09T09:22:59;18.90;99.90
18450;DHT22;9354;50.194;7.690;2022-09-09T09:25:33;18.80;99.90
18450;DHT22;9354;50.194;7.690;2022-09-09T09:28:10;18.80;99.90
18450;DHT22;9354;50.194;7.690;2022-09-09T09:30:47;18.80;99.90
18450;DHT22;9354;50.194;7.690;2022-09-09T09:33:21;18.90;99.90
18450;DHT22;9354;50.194;7.690;2022-09-09T09:35:49;19.10;99.90
18450;DHT22;9354;50.194;7.690;2022-09-09T09:38:19;19.30;99.90
18450;DHT22;9354;50.194;7.690;2022-09-09T09:40:49;19.40;99.90
18450;DHT22;9354;50.194;7.690;2022-09-09T09:43:23;19.30;99.90
18450;DHT22;9354;50.194;7.690;2022-09-09T09:45:51;19.20;99.90
18450;DHT22;9354;50.194;7.690;2022-09-09T09:48:18;19.30;99.90
18450;DHT22;9354;50.194;7.690;2022-09-09T09:50:49;19.50;99.90
18450;DHT22;9354;50.194;7.690;2022-09-09T09:53:21;19.60;99.90
18450;DHT22;9354;50.194;7.690;2022-09-09T09:55:56;19.90;99.90
18450;DHT22;9354;50.194;7.690;2022-09-09T09:58:31;20.20;99.90
18450;DHT22;9354;50.194;7.690;2022-09-09T10:01:00;20.40;99.90
18450;DHT22;9354;50.194;7.690;2022-09-09T10:03:29;20.50;99.90
18450;DHT22;9354;50.194;7.690;2022-09-09T10:05:58;20.60;99.90
18450;DHT22;9354;50.194;7.690;2022-09-09T10:08:27;20.50;99.90
18450;DHT22;9354;50.194;7.690;2022-09-09T10:11:16;20.50;99.90
18450;DHT22;9354;50.194;7.690;2022-09-09T10:13:55;20.50;99.90
18450;DHT22;9354;50.194;7.690;2022-09-09T10:16:40;20.50;99.90
18450;DHT22;9354;50.194;7.690;2022-09-09T10:19:15;20.70;99.90
18450;DHT22;9354;50.194;7.690;2022-09-09T10:21:57;20.80;99.90
18450;DHT22;9354;50.194;7.690;2022-09-09T10:24:51;20.80;99.90
18450;DHT22;9354;50.194;7.690;2022-09-09T10:27:27;20.80;99.90
18450;DHT22;9354;50.194;7.690;2022-09-09T10:30:07;20.80;99.90
18450;DHT22;9354;50.194;7.690;2022-09-09T10:32:39;20.80;99.90
18450;DHT22;9354;50.194;7.690;2022-09-09T10:35:14;20.70;99.90
18450;DHT22;9354;50.194;7.690;2022-09-09T10:38:10;20.50;99.90
18450;DHT22;9354;50.194;7.690;2022-09-09T10:40:41;20.30;99.90
18450;DHT22;9354;50.194;7.690;2022-09-09T10:43:17;20.10;99.90
18450;DHT22;9354;50.194;7.690;2022-09-09T10:45:58;20.00;99.90
18450;DHT22;9354;50.194;7.690;2022-09-09T10:48:40;19.90;99.90
18450;DHT22;9354;50.194;7.690;2022-09-09T10:51:21;19.90;99.90
18450;DHT22;9354;50.194;7.690;2022-09-09T10:54:05;19.80;99.90
18450;DHT22;9354;50.194;7.690;2022-09-09T10:56:37;19.90;99.90
18450;DHT22;9354;50.194;7.690;2022-09-09T10:59:09;20.00;99.90
18450;DHT22;9354;50.194;7.690;2022-09-09T11:01:43;20.20;99.90
18450;DHT22;9354;50.194;7.690;2022-09-09T11:04:17;20.40;99.90
18450;DHT22;9354;50.194;7.690;2022-09-09T11:06:49;20.50;99.90
18450;DHT22;9354;50.194;7.690;2022-09-09T11:09:23;20.80;99.90
18450;DHT22;9354;50.194;7.690;2022-09-09T11:11:53;21.00;99.90
18450;DHT22;9354;50.194;7.690;2022-09-09T11:14:28;21.20;99.90
18450;DHT22;9354;50.194;7.690;2022-09-09T11:16:59;21.30;99.90
18450;DHT22;9354;50.194;7.690;2022-09-09T11:19:30;21.40;99.90
18450;DHT22;9354;50.194;7.690;2022-09-09T11:22:01;21.50;99.90
18450;DHT22;9354;50.194;7.690;2022-09-09T11:24:34;21.40;99.90
18450;DHT22;9354;50.194;7.690;2022-09-09T11:27:08;21.30;99.90
18450;DHT22;9354;50.194;7.690;2022-09-09T11:30:05;21.30;99.90
18450;DHT22;9354;50.194;7.690;2022-09-09T11:35:47;21.10;99.90
18450;DHT22;9354;50.194;7.690;2022-09-09T11:38:26;21.10;99.90
18450;DHT22;9354;50.194;7.690;2022-09-09T11:40:55;21.30;99.90
18450;DHT22;9354;50.194;7.690;2022-09-09T11:43:28;21.50;99.90
18450;DHT22;9354;50.194;7.690;2022-09-09T11:45:58;21.60;99.90
18450;DHT22;9354;50.194;7.690;2022-09-09T11:48:32;21.30;99.90
18450;DHT22;9354;50.194;7.690;2022-09-09T11:51:03;21.10;99.90
18450;DHT22;9354;50.194;7.690;2022-09-09T11:53:34;20.80;99.90
18450;DHT22;9354;50.194;7.690;2022-09-09T11:56:07;20.60;99.90
18450;DHT22;9354;50.194;7.690;2022-09-09T11:58:41;20.40;99.90
18450;DHT22;9354;50.194;7.690;2022-09-09T12:01:27;20.00;99.90
18450;DHT22;9354;50.194;7.690;2022-09-09T12:06:51;19.30;99.90
18450;DHT22;9354;50.194;7.690;2022-09-09T12:09:25;19.40;99.90
18450;DHT22;9354;50.194;7.690;2022-09-09T12:12:06;19.50;99.90
18450;DHT22;9354;50.194;7.690;2022-09-09T12:14:38;19.70;99.90
18450;DHT22;9354;50.194;7.690;2022-09-09T12:17:16;20.00;99.90
18450;DHT22;9354;50.194;7.690;2022-09-09T12:19:45;20.40;99.90
18450;DHT22;9354;50.194;7.690;2022-09-09T12:22:20;20.60;99.90
18450;DHT22;9354;50.194;7.690;2022-09-09T12:24:57;20.90;99.90
18450;DHT22;9354;50.194;7.690;2022-09-09T12:27:31;21.00;99.90
18450;DHT22;9354;50.194;7.690;2022-09-09T12:30:03;21.00;99.90
18450;DHT22;9354;50.194;7.690;2022-09-09T12:32:32;21.00;99.90
18450;DHT22;9354;50.194;7.690;2022-09-09T12:35:03;21.10;99.90
18450;DHT22;9354;50.194;7.690;2022-09-09T12:37:34;21.20;99.90
18450;DHT22;9354;50.194;7.690;2022-09-09T12:40:04;21.30;99.90
18450;DHT22;9354;50.194;7.690;2022-09-09T12:42:32;21.50;99.90
18450;DHT22;9354;50.194;7.690;2022-09-09T12:45:01;21.60;99.90
18450;DHT22;9354;50.194;7.690;2022-09-09T12:47:37;21.70;99.90
18450;DHT22;9354;50.194;7.690;2022-09-09T12:50:16;21.60;99.90
18450;DHT22;9354;50.194;7.690;2022-09-09T12:52:44;21.60;99.90
18450;DHT22;9354;50.194;7.690;2022-09-09T12:55:18;21.60;99.90
18450;DHT22;9354;50.194;7.690;2022-09-09T12:57:48;21.50;99.90
18450;DHT22;9354;50.194;7.690;2022-09-09T13:00:20;21.30;99.90
18450;DHT22;9354;50.194;7.690;2022-09-09T13:02:51;21.20;99.90
18450;DHT22;9354;50.194;7.690;2022-09-09T13:05:23;21.20;99.90
18450;DHT22;9354;50.194;7.690;2022-09-09T13:07:51;21.20;99.90
18450;DHT22;9354;50.194;7.690;2022-09-09T13:10:25;21.30;99.90
18450;DHT22;9354;50.194;7.690;2022-09-09T13:12:53;21.50;99.90
18450;DHT22;9354;50.194;7.690;2022-09-09T13:15:22;21.70;99.90
18450;DHT22;9354;50.194;7.690;2022-09-09T13:17:54;21.90;99.90
18450;DHT22;9354;50.194;7.690;2022-09-09T13:20:24;21.90;99.90
18450;DHT22;9354;50.194;7.690;2022-09-09T13:22:53;21.80;99.90
18450;DHT22;9354;50.194;7.690;2022-09-09T13:25:24;21.50;99.90
18450;DHT22;9354;50.194;7.690;2022-09-09T13:27:55;21.10;99.90
18450;DHT22;9354;50.194;7.690;2022-09-09T13:30:26;20.80;99.90
18450;DHT22;9354;50.194;7.690;2022-09-09T13:33:01;20.60;99.90
18450;DHT22;9354;50.194;7.690;2022-09-09T13:35:31;20.30;99.90
18450;DHT22;9354;50.194;7.690;2022-09-09T13:37:59;19.40;99.90
18450;DHT22;9354;50.194;7.690;2022-09-09T13:40:33;18.30;99.90
18450;DHT22;9354;50.194;7.690;2022-09-09T13:43:02;17.50;99.90
18450;DHT22;9354;50.194;7.690;2022-09-09T13:45:31;17.10;99.90
18450;DHT22;9354;50.194;7.690;2022-09-09T13:48:09;17.00;99.90
18450;DHT22;9354;50.194;7.690;2022-09-09T13:50:38;17.00;99.90
18450;DHT22;9354;50.194;7.690;2022-09-09T13:53:07;17.10;99.90
18450;DHT22;9354;50.194;7.690;2022-09-09T13:55:36;17.30;99.90
18450;DHT22;9354;50.194;7.690;2022-09-09T13:58:05;17.60;99.90
18450;DHT22;9354;50.194;7.690;2022-09-09T14:00:34;17.70;99.90
18450;DHT22;9354;50.194;7.690;2022-09-09T14:03:01;17.90;99.90
18450;DHT22;9354;50.194;7.690;2022-09-09T14:05:30;17.80;99.90
18450;DHT22;9354;50.194;7.690;2022-09-09T14:08:00;17.90;99.90
18450;DHT22;9354;50.194;7.690;2022-09-09T14:10:28;18.00;99.90
18450;DHT22;9354;50.194;7.690;2022-09-09T14:12:55;18.10;99.90
18450;DHT22;9354;50.194;7.690;2022-09-09T14:15:23;18.10;99.90
18450;DHT22;9354;50.194;7.690;2022-09-09T14:17:50;18.20;99.90
18450;DHT22;9354;50.194;7.690;2022-09-09T14:20:18;18.30;99.90
18450;DHT22;9354;50.194;7.690;2022-09-09T14:22:45;18.30;99.90
18450;DHT22;9354;50.194;7.690;2022-09-09T14:25:14;18.50;99.90
18450;DHT22;9354;50.194;7.690;2022-09-09T14:27:42;18.50;99.90
18450;DHT22;9354;50.194;7.690;2022-09-09T14:30:10;18.60;99.90
18450;DHT22;9354;50.194;7.690;2022-09-09T14:32:38;18.60;99.90
18450;DHT22;9354;50.194;7.690;2022-09-09T14:35:06;18.60;99.90
18450;DHT22;9354;50.194;7.690;2022-09-09T14:37:33;18.40;99.90
18450;DHT22;9354;50.194;7.690;2022-09-09T14:40:01;18.30;99.90
18450;DHT22;9354;50.194;7.690;2022-09-09T14:42:30;18.10;99.90
18450;DHT22;9354;50.194;7.690;2022-09-09T14:44:57;18.10;99.90
18450;DHT22;9354;50.194;7.690;2022-09-09T14:47:24;18.00;99.90
18450;DHT22;9354;50.194;7.690;2022-09-09T14:49:52;18.00;99.90
18450;DHT22;9354;50.194;7.690;2022-09-09T14:52:19;18.00;99.90
18450;DHT22;9354;50.194;7.690;2022-09-09T14:54:47;18.00;99.90
18450;DHT22;9354;50.194;7.690;2022-09-09T14:57:15;17.90;99.90
18450;DHT22;9354;50.194;7.690;2022-09-09T14:59:44;17.90;99.90
18450;DHT22;9354;50.194;7.690;2022-09-09T15:02:11;17.90;99.90
18450;DHT22;9354;50.194;7.690;2022-09-09T15:04:39;17.90;99.90
18450;DHT22;9354;50.194;7.690;2022-09-09T15:07:07;17.90;99.90
18450;DHT22;9354;50.194;7.690;2022-09-09T15:09:34;17.90;99.90
18450;DHT22;9354;50.194;7.690;2022-09-09T15:12:03;17.80;99.90
18450;DHT22;9354;50.194;7.690;2022-09-09T15:14:31;17.70;99.90
18450;DHT22;9354;50.194;7.690;2022-09-09T15:17:00;17.60;99.90
18450;DHT22;9354;50.194;7.690;2022-09-09T15:19:27;17.30;99.90
18450;DHT22;9354;50.194;7.690;2022-09-09T15:21:55;17.10;99.90
18450;DHT22;9354;50.194;7.690;2022-09-09T15:24:22;17.00;99.90
18450;DHT22;9354;50.194;7.690;2022-09-09T15:26:49;16.90;99.90
18450;DHT22;9354;50.194;7.690;2022-09-09T15:29:17;16.70;99.90
18450;DHT22;9354;50.194;7.690;2022-09-09T15:31:44;16.60;99.90
18450;DHT22;9354;50.194;7.690;2022-09-09T15:34:14;16.60;99.90
18450;DHT22;9354;50.194;7.690;2022-09-09T15:36:43;16.60;99.90
18450;DHT22;9354;50.194;7.690;2022-09-09T15:39:13;16.60;99.90
18450;DHT22;9354;50.194;7.690;2022-09-09T15:41:41;16.60;99.90
18450;DHT22;9354;50.194;7.690;2022-09-09T15:44:10;16.60;99.90
18450;DHT22;9354;50.194;7.690;2022-09-09T15:46:39;16.50;99.90
18450;DHT22;9354;50.194;7.690;2022-09-09T15:49:08;16.50;99.90
18450;DHT22;9354;50.194;7.690;2022-09-09T15:51:41;16.40;99.90
18450;DHT22;9354;50.194;7.690;2022-09-09T15:54:10;16.40;99.90
18450;DHT22;9354;50.194;7.690;2022-09-09T15:56:38;16.30;99.90
18450;DHT22;9354;50.194;7.690;2022-09-09T15:59:05;16.30;99.90
18450;DHT22;9354;50.194;7.690;2022-09-09T16:01:32;16.30;99.90
18450;DHT22;9354;50.194;7.690;2022-09-09T16:04:00;16.30;99.90
18450;DHT22;9354;50.194;7.690;2022-09-09T16:06:29;16.30;99.90
18450;DHT22;9354;50.194;7.690;2022-09-09T16:08:58;16.30;99.90
18450;DHT22;9354;50.194;7.690;2022-09-09T16:11:28;16.30;99.90
18450;DHT22;9354;50.194;7.690;2022-09-09T16:13:56;16.30;99.90